createdAt,value
2022-12-16T00:00:12.439Z,-6.26
2022-12-16T00:01:12.487Z,-6.21
2022-12-16T00:02:12.443Z,-6.33
2022-12-16T00:03:12.379Z,-6.23
2022-12-16T00:04:12.417Z,-6.15
2022-12-16T00:05:12.293Z,-6.23
2022-12-16T00:06:12.260Z,-6.15
2022-12-16T00:07:12.228Z,-6.21
2022-12-16T00:08:12.197Z,-6.23
2022-12-16T00:09:12.164Z,-6.26
2022-12-16T00:10:12.192Z,-6.16
2022-12-16T00:11:12.106Z,-6.34
2022-12-16T00:12:12.083Z,-6.36
2022-12-16T00:13:12.044Z,-6.30
2022-12-16T00:14:12.010Z,-6.29
2022-12-16T00:15:11.981Z,-6.40
2022-12-16T00:16:11.970Z,-6.34
2022-12-16T00:17:11.923Z,-6.31
2022-12-16T00:18:11.891Z,-6.29
2022-12-16T00:19:11.902Z,-6.31
2022-12-16T00:20:11.830Z,-6.42
2022-12-16T00:21:11.806Z,-6.40
2022-12-16T00:22:11.772Z,-6.45
2022-12-16T00:23:11.741Z,-6.47
2022-12-16T00:24:11.705Z,-6.44
2022-12-16T00:25:11.685Z,-6.48
2022-12-16T00:26:11.644Z,-6.47
2022-12-16T00:27:11.616Z,-6.48
2022-12-16T00:28:11.585Z,-6.50
2022-12-16T00:29:11.554Z,-6.48
2022-12-16T00:30:11.523Z,-6.45
2022-12-16T00:31:11.570Z,-6.42
2022-12-16T00:32:11.461Z,-6.45
2022-12-16T00:33:11.437Z,-6.37
2022-12-16T00:34:11.394Z,-6.33
2022-12-16T00:35:11.377Z,-6.39
2022-12-16T00:36:11.344Z,-6.34
2022-12-16T00:37:11.310Z,-6.34
2022-12-16T00:38:11.281Z,-6.48
2022-12-16T00:39:11.259Z,-6.36
2022-12-16T00:40:11.215Z,-6.42
2022-12-16T00:41:11.185Z,-6.47
2022-12-16T00:42:11.154Z,-6.45
2022-12-16T00:43:11.128Z,-6.47
2022-12-16T00:44:11.100Z,-6.40
2022-12-16T00:45:11.064Z,-6.42
2022-12-16T00:46:11.103Z,-6.50
2022-12-16T00:47:11.010Z,-6.42
2022-12-16T00:48:10.973Z,-6.42
2022-12-16T00:49:10.952Z,-6.36
2022-12-16T00:50:10.906Z,-6.40
2022-12-16T00:51:10.879Z,-6.39
2022-12-16T00:52:10.850Z,-6.45
2022-12-16T00:53:10.822Z,-6.48
2022-12-16T00:54:10.816Z,-6.44
2022-12-16T00:55:10.757Z,-6.50
2022-12-16T00:56:10.740Z,-6.45
2022-12-16T00:57:10.701Z,-6.42
2022-12-16T00:58:10.676Z,-6.42
2022-12-16T00:59:10.637Z,-6.51
2022-12-16T01:00:10.598Z,-6.48
2022-12-16T01:01:10.640Z,-6.50
2022-12-16T01:02:10.808Z,-6.54
2022-12-16T01:03:10.657Z,-6.45
2022-12-16T01:04:10.476Z,-6.48
2022-12-16T01:05:10.451Z,-6.48
2022-12-16T01:06:10.422Z,-6.44
2022-12-16T01:07:10.390Z,-6.51
2022-12-16T01:08:10.402Z,-6.50
2022-12-16T01:09:10.332Z,-6.48
2022-12-16T01:10:10.299Z,-6.52
2022-12-16T01:11:10.264Z,-6.61
2022-12-16T01:12:10.238Z,-6.52
2022-12-16T01:13:10.211Z,-6.64
2022-12-16T01:14:10.168Z,-6.61
2022-12-16T01:15:10.139Z,-6.67
2022-12-16T01:16:10.148Z,-6.74
2022-12-16T01:17:10.078Z,-6.73
2022-12-16T01:18:10.045Z,-6.71
2022-12-16T01:19:10.029Z,-6.81
2022-12-16T01:20:09.983Z,-6.82
2022-12-16T01:21:10.056Z,-6.87
2022-12-16T01:22:09.929Z,-6.88
2022-12-16T01:23:09.892Z,-6.88
2022-12-16T01:24:09.868Z,-6.88
2022-12-16T01:25:09.836Z,-6.82
2022-12-16T01:26:09.797Z,-6.90
2022-12-16T01:27:09.769Z,-6.87
2022-12-16T01:28:09.731Z,-6.99
2022-12-16T01:29:09.707Z,-6.92
2022-12-16T01:30:09.719Z,-7.02
2022-12-16T01:31:09.646Z,-7.00
2022-12-16T01:32:09.662Z,-6.90
2022-12-16T01:33:09.589Z,-6.97
2022-12-16T01:34:09.557Z,-7.02
2022-12-16T01:35:29.446Z,-6.94
2022-12-16T01:36:09.496Z,-7.02
2022-12-16T01:37:09.479Z,-7.10
2022-12-16T01:38:09.425Z,-7.06
2022-12-16T01:39:09.398Z,-7.10
2022-12-16T01:40:09.402Z,-7.15
2022-12-16T01:41:09.336Z,-7.16
2022-12-16T01:42:09.305Z,-7.06
2022-12-16T01:43:09.282Z,-7.13
2022-12-16T01:44:09.239Z,-7.10
2022-12-16T01:45:09.218Z,-7.19
2022-12-16T01:46:09.225Z,-7.21
2022-12-16T01:47:09.148Z,-7.23
2022-12-16T01:48:09.120Z,-7.26
2022-12-16T01:49:09.091Z,-7.29
2022-12-16T01:50:09.049Z,-7.37
2022-12-16T01:51:09.025Z,-7.38
2022-12-16T01:52:08.991Z,-7.34
2022-12-16T01:53:08.970Z,-7.42
2022-12-16T01:54:08.934Z,-7.29
2022-12-16T01:55:08.899Z,-7.37
2022-12-16T01:56:08.869Z,-7.44
2022-12-16T01:57:08.854Z,-7.49
2022-12-16T01:58:08.801Z,-7.51
2022-12-16T01:59:08.777Z,-7.48
2022-12-16T02:00:08.741Z,-7.48
2022-12-16T02:01:08.773Z,-7.51
2022-12-16T02:02:08.880Z,-7.49
2022-12-16T02:03:08.755Z,-7.54
2022-12-16T02:04:08.617Z,-7.60
2022-12-16T02:05:08.598Z,-7.66
2022-12-16T02:06:08.575Z,-7.63
2022-12-16T02:07:08.528Z,-7.62
2022-12-16T02:08:08.512Z,-7.87
2022-12-16T02:09:08.518Z,-7.81
2022-12-16T02:10:08.425Z,-7.83
2022-12-16T02:11:08.405Z,-7.88
2022-12-16T02:12:08.375Z,-7.84
2022-12-16T02:13:08.346Z,-7.87
2022-12-16T02:14:08.308Z,-7.86
2022-12-16T02:15:08.279Z,-7.88
2022-12-16T02:16:09.988Z,-7.88
2022-12-16T02:17:08.305Z,-7.90
2022-12-16T02:18:08.184Z,-7.88
2022-12-16T02:19:08.153Z,-7.91
2022-12-16T02:20:08.129Z,-7.88
2022-12-16T02:21:08.089Z,-7.91
2022-12-16T02:22:08.056Z,-7.94
2022-12-16T02:23:08.029Z,-7.88
2022-12-16T02:24:08.001Z,-7.94
2022-12-16T02:25:07.977Z,-7.94
2022-12-16T02:26:07.936Z,-7.98
2022-12-16T02:27:07.908Z,-8.05
2022-12-16T02:28:07.871Z,-8.05
2022-12-16T02:29:07.856Z,-8.17
2022-12-16T02:30:07.806Z,-8.10
2022-12-16T02:31:07.844Z,-8.17
2022-12-16T02:32:07.753Z,-8.13
2022-12-16T02:33:07.707Z,-8.19
2022-12-16T02:34:07.726Z,-8.16
2022-12-16T02:35:07.698Z,-8.02
2022-12-16T02:36:07.620Z,-7.95
2022-12-16T02:37:07.586Z,-7.94
2022-12-16T02:38:07.551Z,-7.98
2022-12-16T02:39:07.524Z,-7.94
2022-12-16T02:40:07.508Z,-7.94
2022-12-16T02:41:07.487Z,-7.97
2022-12-16T02:42:07.433Z,-8.09
2022-12-16T02:43:07.412Z,-8.21
2022-12-16T02:44:07.370Z,-8.31
2022-12-16T02:45:07.332Z,-8.29
2022-12-16T02:46:07.361Z,-8.35
2022-12-16T02:47:07.268Z,-8.32
2022-12-16T02:48:07.240Z,-8.41
2022-12-16T02:49:07.199Z,-8.24
2022-12-16T02:50:07.171Z,-8.35
2022-12-16T02:51:07.139Z,-8.31
2022-12-16T02:52:07.113Z,-8.39
2022-12-16T02:53:07.074Z,-8.41
2022-12-16T02:54:07.049Z,-8.45
2022-12-16T02:55:07.007Z,-8.45
2022-12-16T02:56:06.993Z,-8.48
2022-12-16T02:57:07.029Z,-8.48
2022-12-16T02:58:06.917Z,-8.47
2022-12-16T02:59:06.886Z,-8.50
2022-12-16T03:00:06.897Z,-8.59
2022-12-16T03:01:06.919Z,-8.58
2022-12-16T03:02:07.021Z,-8.65
2022-12-16T03:03:06.944Z,-8.71
2022-12-16T03:04:06.725Z,-8.71
2022-12-16T03:05:06.694Z,-8.68
2022-12-16T03:06:06.684Z,-8.77
2022-12-16T03:07:06.642Z,-8.73
2022-12-16T03:08:06.601Z,-8.66
2022-12-16T03:09:06.572Z,-8.68
2022-12-16T03:10:06.536Z,-8.70
2022-12-16T03:11:06.501Z,-8.78
2022-12-16T03:12:06.472Z,-8.81
2022-12-16T03:13:06.434Z,-8.94
2022-12-16T03:14:06.411Z,-9.06
2022-12-16T03:15:06.382Z,-9.06
2022-12-16T03:16:06.346Z,-9.06
2022-12-16T03:17:06.329Z,-9.15
2022-12-16T03:18:06.283Z,-9.15
2022-12-16T03:19:06.244Z,-9.09
2022-12-16T03:20:06.217Z,-9.04
2022-12-16T03:21:06.183Z,-8.97
2022-12-16T03:22:06.155Z,-9.13
2022-12-16T03:23:06.112Z,-8.94
2022-12-16T03:24:06.091Z,-9.04
2022-12-16T03:25:06.053Z,-9.08
2022-12-16T03:26:06.022Z,-8.99
2022-12-16T03:27:05.991Z,-9.04
2022-12-16T03:28:05.960Z,-8.97
2022-12-16T03:29:05.927Z,-9.04
2022-12-16T03:30:05.901Z,-9.04
2022-12-16T03:31:05.902Z,-9.01
2022-12-16T03:32:05.840Z,-9.12
2022-12-16T03:33:05.806Z,-9.09
2022-12-16T03:34:05.765Z,-9.08
2022-12-16T03:35:05.773Z,-9.15
2022-12-16T03:36:05.708Z,-9.16
2022-12-16T03:37:05.669Z,-9.15
2022-12-16T03:38:05.638Z,-9.13
2022-12-16T03:39:05.606Z,-9.16
2022-12-16T03:40:05.579Z,-9.20
2022-12-16T03:41:05.542Z,-9.22
2022-12-16T03:42:05.509Z,-9.33
2022-12-16T03:43:05.476Z,-9.33
2022-12-16T03:44:05.448Z,-9.38
2022-12-16T03:45:05.457Z,-9.36
2022-12-16T03:46:05.452Z,-9.41
2022-12-16T03:47:05.370Z,-9.41
2022-12-16T03:48:05.316Z,-9.34
2022-12-16T03:49:05.282Z,-9.36
2022-12-16T03:50:05.254Z,-9.37
2022-12-16T03:51:05.222Z,-9.41
2022-12-16T03:52:05.223Z,-9.34
2022-12-16T03:53:05.150Z,-9.34
2022-12-16T03:54:05.121Z,-9.48
2022-12-16T03:55:05.092Z,-9.46
2022-12-16T03:56:05.059Z,-9.45
2022-12-16T03:57:05.029Z,-9.34
2022-12-16T03:58:04.999Z,-9.34
2022-12-16T03:59:04.960Z,-9.26
2022-12-16T04:00:04.930Z,-9.26
2022-12-16T04:01:04.909Z,-9.26
2022-12-16T04:02:04.990Z,-9.33
2022-12-16T04:03:05.085Z,-9.28
2022-12-16T04:04:04.863Z,-9.37
2022-12-16T04:05:04.765Z,-9.38
2022-12-16T04:06:04.737Z,-9.50
2022-12-16T04:07:04.696Z,-9.59
2022-12-16T04:08:04.670Z,-9.52
2022-12-16T04:09:04.645Z,-9.62
2022-12-16T04:10:04.613Z,-9.59
2022-12-16T04:11:04.569Z,-9.67
2022-12-16T04:12:04.537Z,-9.67
2022-12-16T04:13:04.506Z,-9.53
2022-12-16T04:14:04.476Z,-9.52
2022-12-16T04:15:04.437Z,-9.52
2022-12-16T04:16:04.462Z,-9.56
2022-12-16T04:17:04.381Z,-9.50
2022-12-16T04:18:04.351Z,-9.50
2022-12-16T04:19:04.315Z,-9.64
2022-12-16T04:20:04.279Z,-9.50
2022-12-16T04:21:04.247Z,-9.45
2022-12-16T04:22:04.215Z,-9.56
2022-12-16T04:23:04.178Z,-9.45
2022-12-16T04:24:04.157Z,-9.50
2022-12-16T04:25:04.114Z,-9.49
2022-12-16T04:26:04.085Z,-9.45
2022-12-16T04:27:04.047Z,-9.55
2022-12-16T04:28:04.025Z,-9.52
2022-12-16T04:29:03.993Z,-9.53
2022-12-16T04:30:03.960Z,-9.53
2022-12-16T04:31:03.989Z,-9.53
2022-12-16T04:32:03.897Z,-9.69
2022-12-16T04:33:03.856Z,-9.60
2022-12-16T04:34:03.825Z,-9.74
2022-12-16T04:35:03.789Z,-9.70
2022-12-16T04:36:03.766Z,-9.76
2022-12-16T04:37:03.724Z,-9.69
2022-12-16T04:38:03.699Z,-9.77
2022-12-16T04:39:03.654Z,-9.73
2022-12-16T04:40:03.645Z,-9.82
2022-12-16T04:41:03.596Z,-9.79
2022-12-16T04:42:03.562Z,-9.76
2022-12-16T04:43:03.529Z,-9.71
2022-12-16T04:44:03.506Z,-9.84
2022-12-16T04:45:03.483Z,-9.79
2022-12-16T04:46:03.484Z,-9.92
2022-12-16T04:47:03.394Z,-9.92
2022-12-16T04:48:03.368Z,-9.98
2022-12-16T04:49:03.337Z,-9.97
2022-12-16T04:50:03.338Z,-9.97
2022-12-16T04:51:03.282Z,-9.92
2022-12-16T04:52:03.243Z,-9.95
2022-12-16T04:53:03.201Z,-9.89
2022-12-16T04:54:03.169Z,-9.87
2022-12-16T04:55:03.145Z,-9.84
2022-12-16T04:56:04.662Z,-9.80
2022-12-16T04:57:03.102Z,-9.82
2022-12-16T04:58:03.042Z,-9.87
2022-12-16T04:59:03.004Z,-9.87
2022-12-16T05:00:02.978Z,-9.89
2022-12-16T05:01:02.945Z,-9.91
2022-12-16T05:02:03.096Z,-9.92
2022-12-16T05:03:02.874Z,-9.84
2022-12-16T05:04:02.906Z,-9.74
2022-12-16T05:05:02.816Z,-9.87
2022-12-16T05:06:02.785Z,-9.77
2022-12-16T05:07:02.747Z,-9.67
2022-12-16T05:08:02.711Z,-9.85
2022-12-16T05:09:02.682Z,-9.77
2022-12-16T05:10:02.655Z,-9.79
2022-12-16T05:11:02.615Z,-9.80
2022-12-16T05:12:02.581Z,-9.94
2022-12-16T05:13:02.547Z,-10.00
2022-12-16T05:14:02.516Z,-9.94
2022-12-16T05:15:02.489Z,-10.06
2022-12-16T05:16:02.512Z,-10.10
2022-12-16T05:17:02.431Z,-10.08
2022-12-16T05:18:02.388Z,-10.20
2022-12-16T05:19:02.360Z,-10.12
2022-12-16T05:20:02.325Z,-10.13
2022-12-16T05:21:02.296Z,-10.05
2022-12-16T05:22:02.254Z,-9.94
2022-12-16T05:23:02.227Z,-9.98
2022-12-16T05:24:02.205Z,-10.09
2022-12-16T05:25:02.157Z,-10.16
2022-12-16T05:26:02.149Z,-10.16
2022-12-16T05:27:02.131Z,-10.20
2022-12-16T05:28:02.063Z,-10.18
2022-12-16T05:29:02.025Z,-10.21
2022-12-16T05:30:01.993Z,-10.23
2022-12-16T05:31:02.104Z,-10.34
2022-12-16T05:32:01.933Z,-10.42
2022-12-16T05:33:01.907Z,-10.39
2022-12-16T05:34:01.879Z,-10.44
2022-12-16T05:35:01.835Z,-10.41
2022-12-16T05:36:01.801Z,-10.33
2022-12-16T05:37:01.776Z,-10.33
2022-12-16T05:38:01.732Z,-10.24
2022-12-16T05:39:01.699Z,-10.36
2022-12-16T05:40:01.667Z,-10.33
2022-12-16T05:41:01.630Z,-10.31
2022-12-16T05:42:01.614Z,-10.30
2022-12-16T05:43:01.566Z,-10.34
2022-12-16T05:44:01.545Z,-10.31
2022-12-16T05:45:01.511Z,-10.34
2022-12-16T05:46:01.555Z,-10.29
2022-12-16T05:47:01.692Z,-10.30
2022-12-16T05:48:01.415Z,-10.30
2022-12-16T05:49:01.375Z,-10.31
2022-12-16T05:50:01.360Z,-10.38
2022-12-16T05:51:01.301Z,-10.38
2022-12-16T05:52:01.289Z,-10.31
2022-12-16T05:53:01.234Z,-10.34
2022-12-16T05:54:01.205Z,-10.42
2022-12-16T05:55:01.185Z,-10.49
2022-12-16T05:56:01.142Z,-10.54
2022-12-16T05:57:01.103Z,-10.63
2022-12-16T05:58:01.069Z,-10.65
2022-12-16T05:59:01.030Z,-10.63
2022-12-16T06:00:01.012Z,-10.63
2022-12-16T06:01:00.979Z,-10.60
2022-12-16T06:02:01.131Z,-10.65
2022-12-16T06:03:01.034Z,-10.55
2022-12-16T06:04:00.912Z,-10.48
2022-12-16T06:05:00.836Z,-10.45
2022-12-16T06:06:00.812Z,-10.45
2022-12-16T06:07:00.774Z,-10.39
2022-12-16T06:08:00.743Z,-10.47
2022-12-16T06:09:00.718Z,-10.49
2022-12-16T06:10:00.682Z,-10.49
2022-12-16T06:11:00.654Z,-10.45
2022-12-16T06:12:00.619Z,-10.39
2022-12-16T06:13:00.589Z,-10.34
2022-12-16T06:14:00.543Z,-10.29
2022-12-16T06:15:00.507Z,-10.33
2022-12-16T06:16:05.185Z,-10.12
2022-12-16T06:17:00.461Z,-10.18
2022-12-16T06:18:00.417Z,-10.13
2022-12-16T06:19:00.395Z,-10.18
2022-12-16T06:20:00.354Z,-10.23
2022-12-16T06:21:00.315Z,-10.23
2022-12-16T06:22:00.296Z,-10.23
2022-12-16T06:23:00.274Z,-10.30
2022-12-16T06:24:00.220Z,-10.33
2022-12-16T06:25:00.193Z,-10.31
2022-12-16T06:26:00.157Z,-10.42
2022-12-16T06:27:00.114Z,-10.44
2022-12-16T06:28:00.100Z,-10.42
2022-12-16T06:29:00.052Z,-10.42
2022-12-16T06:30:00.025Z,-10.30
2022-12-16T06:31:00.001Z,-10.39
2022-12-16T06:32:00.091Z,-10.44
2022-12-16T06:32:59.923Z,-10.45
2022-12-16T06:33:59.892Z,-10.45
2022-12-16T06:34:59.853Z,-10.47
2022-12-16T06:35:59.823Z,-10.54
2022-12-16T06:36:59.788Z,-10.48
2022-12-16T06:37:59.765Z,-10.63
2022-12-16T06:38:59.719Z,-10.45
2022-12-16T06:39:59.702Z,-10.51
2022-12-16T06:40:59.669Z,-10.47
2022-12-16T06:41:59.623Z,-10.48
2022-12-16T06:42:59.590Z,-10.51
2022-12-16T06:43:59.550Z,-10.48
2022-12-16T06:44:59.520Z,-10.58
2022-12-16T06:45:59.595Z,-10.54
2022-12-16T06:46:59.454Z,-10.55
2022-12-16T06:47:59.429Z,-10.51
2022-12-16T06:48:59.389Z,-10.52
2022-12-16T06:49:59.362Z,-10.45
2022-12-16T06:50:59.324Z,-10.48
2022-12-16T06:51:59.287Z,-10.58
2022-12-16T06:52:59.260Z,-10.52
2022-12-16T06:53:59.225Z,-10.54
2022-12-16T06:54:59.190Z,-10.68
2022-12-16T06:55:59.623Z,-10.65
2022-12-16T06:56:59.209Z,-10.65
2022-12-16T07:00:01.635Z,-10.65
2022-12-16T07:00:52.560Z,-10.72
2022-12-16T07:01:52.486Z,-10.68
2022-12-16T07:02:52.631Z,-10.72
2022-12-16T07:03:52.261Z,-10.79
2022-12-16T07:04:52.230Z,-10.80
2022-12-16T07:05:52.215Z,-10.83
2022-12-16T07:06:52.170Z,-10.69
2022-12-16T07:07:52.387Z,-10.81
2022-12-16T07:08:52.112Z,-10.80
2022-12-16T07:09:52.110Z,-10.73
2022-12-16T07:10:52.039Z,-10.63
2022-12-16T07:11:52.032Z,-10.66
2022-12-16T07:12:51.972Z,-10.60
2022-12-16T07:13:51.958Z,-10.59
2022-12-16T07:14:51.905Z,-10.52
2022-12-16T07:15:51.910Z,-10.58
2022-12-16T07:16:51.927Z,-10.55
2022-12-16T07:17:51.810Z,-10.59
2022-12-16T07:18:51.799Z,-10.66
2022-12-16T07:19:51.746Z,-10.63
2022-12-16T07:20:51.706Z,-10.60
2022-12-16T07:21:51.698Z,-10.62
2022-12-16T07:23:00.960Z,-10.48
2022-12-16T07:23:51.607Z,-10.39
2022-12-16T07:24:51.574Z,-10.41
2022-12-16T07:25:51.537Z,-10.41
2022-12-16T07:26:51.513Z,-10.41
2022-12-16T07:27:51.518Z,-10.49
2022-12-16T07:28:51.553Z,-10.44
2022-12-16T07:29:51.407Z,-10.55
2022-12-16T07:30:51.377Z,-10.51
2022-12-16T07:31:51.406Z,-10.63
2022-12-16T07:32:53.301Z,-10.62
2022-12-16T07:33:51.274Z,-10.60
2022-12-16T07:34:51.266Z,-10.65
2022-12-16T07:35:51.211Z,-10.66
2022-12-16T07:36:51.176Z,-10.65
2022-12-16T07:38:00.042Z,-10.55
2022-12-16T07:39:45.933Z,-10.42
2022-12-16T07:40:44.532Z,-10.41
2022-12-16T07:41:44.536Z,-10.42
2022-12-16T07:42:44.577Z,-10.45
2022-12-16T07:43:44.416Z,-10.36
2022-12-16T07:44:44.322Z,-10.41
2022-12-16T07:45:45.451Z,-10.41
2022-12-16T07:46:44.258Z,-10.41
2022-12-16T07:47:44.245Z,-10.45
2022-12-16T07:48:44.200Z,-10.38
2022-12-16T07:49:44.181Z,-10.44
2022-12-16T07:50:44.122Z,-10.42
2022-12-16T07:51:44.123Z,-10.38
2022-12-16T07:52:44.072Z,-10.26
2022-12-16T07:53:44.026Z,-10.21
2022-12-16T07:54:43.994Z,-10.27
2022-12-16T07:55:43.978Z,-10.16
2022-12-16T07:56:43.935Z,-10.24
2022-12-16T07:57:43.891Z,-10.18
2022-12-16T07:58:43.856Z,-10.27
2022-12-16T07:59:43.844Z,-10.27
2022-12-16T08:00:43.801Z,-10.16
2022-12-16T08:01:43.830Z,-10.15
2022-12-16T08:02:43.932Z,-10.12
2022-12-16T08:03:43.754Z,-10.02
2022-12-16T08:04:43.664Z,-10.02
2022-12-16T08:05:43.652Z,-10.03
2022-12-16T08:08:46.109Z,-9.82
2022-12-16T08:11:36.813Z,-9.80
2022-12-16T08:12:36.786Z,-9.84
2022-12-16T08:13:37.204Z,-9.82
2022-12-16T08:14:36.719Z,-9.79
2022-12-16T08:15:36.682Z,-9.71
2022-12-16T08:16:36.842Z,-9.60
2022-12-16T08:17:36.637Z,-9.46
2022-12-16T08:18:36.586Z,-9.37
2022-12-16T08:19:36.577Z,-9.19
2022-12-16T08:20:36.524Z,-9.23
2022-12-16T08:21:36.518Z,-9.08
2022-12-16T08:22:36.458Z,-9.04
2022-12-16T08:23:36.748Z,-8.94
2022-12-16T08:25:36.393Z,-8.77
2022-12-16T08:26:36.331Z,-8.60
2022-12-16T08:27:36.288Z,-8.34
2022-12-16T08:28:36.263Z,-7.72
2022-12-16T08:29:44.888Z,-7.38
2022-12-16T08:30:36.222Z,-7.24
2022-12-16T08:31:36.193Z,-7.21
2022-12-16T08:32:36.152Z,-7.27
2022-12-16T08:33:36.554Z,-7.33
2022-12-16T08:34:36.070Z,-7.38
2022-12-16T08:35:36.038Z,-7.38
2022-12-16T08:36:36.004Z,-7.13
2022-12-16T08:37:35.975Z,-6.63
2022-12-16T08:38:35.940Z,-6.26
2022-12-16T08:39:35.943Z,-5.87
2022-12-16T08:40:36.852Z,-5.72
2022-12-16T08:41:35.840Z,-5.79
2022-12-16T08:42:35.813Z,-5.97
2022-12-16T08:43:36.255Z,-6.08
2022-12-16T08:44:35.752Z,-6.21
2022-12-16T08:45:35.714Z,-6.42
2022-12-16T08:46:35.768Z,-6.36
2022-12-16T08:47:35.655Z,-6.50
2022-12-16T08:48:35.652Z,-6.69
2022-12-16T08:49:35.646Z,-6.79
2022-12-16T08:50:35.565Z,-6.74
2022-12-16T08:51:35.567Z,-6.76
2022-12-16T08:52:35.508Z,-6.66
2022-12-16T08:53:35.861Z,-6.55
2022-12-16T08:54:35.439Z,-6.37
2022-12-16T08:55:35.422Z,-6.18
2022-12-16T08:56:35.376Z,-6.01
2022-12-16T08:57:35.370Z,-6.15
2022-12-16T08:58:35.355Z,-6.01
2022-12-16T08:59:35.303Z,-5.91
2022-12-16T09:00:35.266Z,-5.41
2022-12-16T09:01:35.418Z,-5.19
2022-12-16T09:02:35.470Z,-4.73
2022-12-16T09:03:35.618Z,-4.61
2022-12-16T09:04:35.195Z,-4.66
2022-12-16T09:05:35.096Z,-4.66
2022-12-16T09:06:40.182Z,-4.93
2022-12-16T09:07:35.051Z,-4.94
2022-12-16T09:08:35.048Z,-5.07
2022-12-16T09:09:34.970Z,-5.16
2022-12-16T09:10:40.259Z,-5.22
2022-12-16T09:11:34.939Z,-5.26
2022-12-16T09:12:34.883Z,-5.05
2022-12-16T09:13:35.546Z,-4.73
2022-12-16T09:14:34.825Z,-4.76
2022-12-16T09:15:34.865Z,-4.82
2022-12-16T09:16:34.911Z,-4.89
2022-12-16T09:17:34.760Z,-5.03
2022-12-16T09:18:34.703Z,-5.08
2022-12-16T09:19:34.670Z,-5.01
2022-12-16T09:20:34.649Z,-4.71
2022-12-16T09:21:34.645Z,-4.54
2022-12-16T09:22:34.590Z,-4.46
2022-12-16T09:23:34.987Z,-4.19
2022-12-16T09:24:34.527Z,-3.71
2022-12-16T09:25:34.525Z,-3.08
2022-12-16T09:26:34.593Z,-2.69
2022-12-16T09:27:34.451Z,-2.53
2022-12-16T09:28:34.405Z,-2.69
2022-12-16T09:29:34.406Z,-2.75
2022-12-16T09:30:34.351Z,-2.58
2022-12-16T09:31:34.373Z,-2.54
2022-12-16T09:32:34.340Z,-2.53
2022-12-16T09:33:34.722Z,-2.48
2022-12-16T09:34:34.229Z,-2.51
2022-12-16T09:35:34.196Z,-2.14
2022-12-16T09:36:34.188Z,-1.67
2022-12-16T09:37:34.166Z,-1.25
2022-12-16T09:38:34.113Z,-0.77
2022-12-16T09:39:34.084Z,-0.55
2022-12-16T09:40:34.052Z,-0.41
2022-12-16T09:41:34.046Z,-0.42
2022-12-16T09:42:33.995Z,-0.45
2022-12-16T09:43:34.320Z,-0.65
2022-12-16T09:44:33.995Z,-0.83
2022-12-16T09:45:33.932Z,-1.03
2022-12-16T09:46:33.948Z,-1.13
2022-12-16T09:47:33.890Z,-1.00
2022-12-16T09:48:33.827Z,-0.73
2022-12-16T09:49:33.792Z,-0.50
2022-12-16T09:50:33.764Z,-0.34
2022-12-16T09:51:33.739Z,-0.27
2022-12-16T09:54:27.056Z,-0.83
2022-12-16T09:55:27.014Z,-0.80
2022-12-16T09:58:20.340Z,-1.03
2022-12-16T09:59:20.310Z,-0.62
2022-12-16T10:00:20.285Z,-0.34
2022-12-16T10:01:20.409Z,-0.12
2022-12-16T10:02:20.592Z,0.23
2022-12-16T10:03:21.136Z,0.75
2022-12-16T10:04:20.285Z,1.12
2022-12-16T10:05:20.139Z,0.83
2022-12-16T10:06:20.100Z,0.67
2022-12-16T10:07:20.099Z,0.80
2022-12-16T10:08:20.099Z,1.04
2022-12-16T10:09:20.051Z,1.12
2022-12-16T10:10:20.018Z,0.92
2022-12-16T10:11:19.989Z,0.72
2022-12-16T10:12:19.938Z,0.51
2022-12-16T10:13:19.920Z,0.27
2022-12-16T10:14:19.996Z,-0.13
2022-12-16T10:15:19.869Z,-0.42
2022-12-16T10:16:19.876Z,-0.37
2022-12-16T10:17:19.814Z,-0.47
2022-12-16T10:18:19.843Z,-0.81
2022-12-16T10:19:19.798Z,-0.87
2022-12-16T10:20:19.725Z,-0.68
2022-12-16T10:21:19.712Z,-0.69
2022-12-16T10:22:19.685Z,-0.75
2022-12-16T10:23:19.649Z,-0.77
2022-12-16T10:24:19.631Z,-0.94
2022-12-16T10:25:24.792Z,-0.80
2022-12-16T10:26:19.589Z,-0.62
2022-12-16T10:27:19.542Z,-0.39
2022-12-16T10:28:19.525Z,-0.68
2022-12-16T10:29:20.417Z,-0.69
2022-12-16T10:30:19.461Z,-0.33
2022-12-16T10:31:19.482Z,-0.05
2022-12-16T10:32:19.423Z,0.07
2022-12-16T10:33:19.392Z,0.07
2022-12-16T10:34:19.353Z,0.23
2022-12-16T10:35:19.332Z,-0.09
2022-12-16T10:36:19.305Z,-0.27
2022-12-16T10:37:21.351Z,-0.42
2022-12-16T10:38:19.239Z,-0.31
2022-12-16T10:39:19.234Z,-0.24
2022-12-16T10:40:19.190Z,-0.19
2022-12-16T10:42:19.360Z,0.48
2022-12-16T10:43:22.388Z,0.70
2022-12-16T10:44:19.146Z,0.71
2022-12-16T10:45:19.192Z,0.88
2022-12-16T10:46:19.136Z,0.83
2022-12-16T10:47:19.018Z,1.06
2022-12-16T10:48:18.980Z,1.28
2022-12-16T10:49:19.028Z,1.34
2022-12-16T10:50:18.922Z,1.50
2022-12-16T10:51:18.908Z,1.68
2022-12-16T10:52:18.877Z,2.06
2022-12-16T10:53:18.851Z,2.30
2022-12-16T10:54:18.832Z,2.30
2022-12-16T10:55:18.798Z,2.58
2022-12-16T10:56:18.770Z,2.56
2022-12-16T10:57:18.752Z,2.33
2022-12-16T10:58:18.724Z,2.13
2022-12-16T10:59:18.705Z,1.99
2022-12-16T11:00:18.669Z,1.51
2022-12-16T11:01:18.741Z,1.39
2022-12-16T11:02:18.806Z,1.29
2022-12-16T11:03:18.839Z,1.25
2022-12-16T11:04:18.636Z,1.32
2022-12-16T11:05:18.586Z,1.29
2022-12-16T11:06:18.533Z,1.29
2022-12-16T11:07:18.539Z,1.52
2022-12-16T11:08:18.468Z,1.58
2022-12-16T11:09:18.491Z,1.44
2022-12-16T11:10:21.486Z,1.65
2022-12-16T11:11:18.416Z,1.69
2022-12-16T11:12:18.488Z,1.52
2022-12-16T11:13:18.452Z,1.37
2022-12-16T11:14:18.446Z,1.12
2022-12-16T11:16:50.445Z,1.24
2022-12-16T11:17:50.375Z,1.15
2022-12-16T11:18:50.383Z,1.19
2022-12-16T11:19:50.349Z,1.16
2022-12-16T11:20:50.295Z,1.29
2022-12-16T11:21:50.260Z,0.70
2022-12-16T11:22:50.233Z,0.39
2022-12-16T11:23:50.211Z,0.38
2022-12-16T11:24:50.183Z,0.46
2022-12-16T11:25:50.164Z,0.45
2022-12-16T11:26:50.131Z,0.38
2022-12-16T11:27:50.109Z,0.62
2022-12-16T11:28:50.086Z,0.92
2022-12-16T11:29:50.087Z,1.18
2022-12-16T11:30:50.055Z,1.52
2022-12-16T11:31:50.123Z,1.79
2022-12-16T11:32:49.978Z,1.82
2022-12-16T11:33:49.961Z,1.71
2022-12-16T11:34:49.931Z,1.90
2022-12-16T11:35:49.912Z,1.93
2022-12-16T11:36:49.883Z,1.83
2022-12-16T11:37:49.859Z,1.89
2022-12-16T11:38:49.849Z,1.78
2022-12-16T11:39:49.810Z,1.93
2022-12-16T11:40:49.803Z,1.99
2022-12-16T11:41:49.757Z,2.16
2022-12-16T11:42:49.729Z,2.17
2022-12-16T11:43:49.718Z,2.17
2022-12-16T11:44:49.683Z,2.02
2022-12-16T11:45:49.742Z,1.89
2022-12-16T11:46:49.738Z,1.76
2022-12-16T11:47:49.610Z,1.89
2022-12-16T11:48:49.580Z,1.87
2022-12-16T11:49:49.560Z,1.83
2022-12-16T11:50:49.531Z,1.89
2022-12-16T11:51:49.522Z,2.04
2022-12-16T11:52:49.493Z,2.09
2022-12-16T11:53:49.453Z,1.93
2022-12-16T11:54:49.434Z,2.01
2022-12-16T11:56:06.459Z,2.08
2022-12-16T11:56:49.435Z,2.06
2022-12-16T11:57:49.355Z,2.16
2022-12-16T11:58:49.336Z,2.19
2022-12-16T11:59:49.328Z,2.15
2022-12-16T12:00:49.288Z,2.35
2022-12-16T12:01:49.382Z,2.22
2022-12-16T12:02:49.263Z,2.01
2022-12-16T12:03:49.381Z,1.99
2022-12-16T12:04:49.199Z,1.91
2022-12-16T12:05:49.170Z,1.87
2022-12-16T12:06:49.136Z,1.80
2022-12-16T12:07:49.125Z,1.68
2022-12-16T12:08:49.118Z,1.60
2022-12-16T12:09:49.066Z,1.68
2022-12-16T12:10:49.034Z,1.57
2022-12-16T12:11:49.015Z,1.69
2022-12-16T12:12:48.994Z,1.83
2022-12-16T12:13:48.972Z,1.89
2022-12-16T12:14:48.937Z,1.72
2022-12-16T12:15:49.007Z,1.83
2022-12-16T12:16:48.954Z,1.79
2022-12-16T12:17:48.865Z,1.75
2022-12-16T12:18:48.848Z,1.36
2022-12-16T12:19:48.842Z,1.50
2022-12-16T12:20:48.792Z,1.60
2022-12-16T12:21:48.794Z,1.68
2022-12-16T12:22:48.767Z,1.65
2022-12-16T12:23:48.720Z,1.54
2022-12-16T12:24:51.420Z,1.65
2022-12-16T12:25:48.676Z,1.55
2022-12-16T12:26:48.641Z,1.60
2022-12-16T12:27:48.612Z,1.54
2022-12-16T12:28:48.594Z,1.43
2022-12-16T12:29:48.599Z,1.52
2022-12-16T12:30:48.562Z,1.75
2022-12-16T12:31:48.624Z,1.61
2022-12-16T12:32:48.503Z,1.51
2022-12-16T12:33:48.463Z,1.60
2022-12-16T12:34:48.438Z,1.72
2022-12-16T12:35:48.411Z,1.76
2022-12-16T12:36:48.398Z,1.69
2022-12-16T12:37:48.364Z,1.57
2022-12-16T12:38:48.340Z,1.43
2022-12-16T12:39:48.308Z,1.47
2022-12-16T12:40:48.288Z,1.43
2022-12-16T12:41:48.279Z,1.40
2022-12-16T12:42:49.737Z,1.32
2022-12-16T12:43:48.209Z,1.18
2022-12-16T12:44:49.253Z,0.97
2022-12-16T12:45:48.204Z,0.89
2022-12-16T12:46:48.231Z,0.82
2022-12-16T12:47:48.291Z,0.72
2022-12-16T12:48:50.683Z,0.65
2022-12-16T12:49:48.149Z,0.68
2022-12-16T12:50:48.042Z,0.65
2022-12-16T12:51:48.048Z,0.52
2022-12-16T12:52:47.989Z,0.62
2022-12-16T12:53:47.969Z,0.58
2022-12-16T12:54:56.660Z,0.42
2022-12-16T12:56:41.302Z,0.31
2022-12-16T12:57:41.263Z,0.43
2022-12-16T12:58:41.209Z,0.51
2022-12-16T12:59:41.195Z,0.45
2022-12-16T13:00:41.281Z,0.45
2022-12-16T13:01:41.452Z,0.71
2022-12-16T13:02:41.280Z,0.76
2022-12-16T13:03:41.122Z,0.64
2022-12-16T13:04:41.054Z,0.58
2022-12-16T13:05:41.254Z,0.65
2022-12-16T13:06:41.011Z,0.45